Time;durP1;ratioP1;P1;durP2;ratioP2;P2;SDS_P1;SDS_P2;PMS_P1;PMS_P2;Temp;Humidity;BMP_temperature;BMP_pressure;BME280_temperature;BME280_humidity;BME280_pressure;Samples;Min_cycle;Max_cycle;Signal;HPM_P1;HPM_P2
2024/03/07 00:02:18;;;;;;;71.07;36.13;;;5.30;99.90;;;;;;5016223;28;20199;-72
2024/03/07 00:04:44;;;;;;;63.80;33.87;;;5.20;99.90;;;;;;5033090;28;20701;-69
2024/03/07 00:07:10;;;;;;;74.10;36.10;;;5.20;99.90;;;;;;5034007;28;20202;-72
2024/03/07 00:09:36;;;;;;;66.27;33.80;;;5.20;99.90;;;;;;5019727;28;20183;-72
2024/03/07 00:12:07;;;;;;;74.23;36.20;;;5.10;99.90;;;;;;5013938;28;20180;-71
2024/03/07 00:14:35;;;;;;;76.53;35.50;;;5.10;99.90;;;;;;5013782;28;20252;-72
2024/03/07 00:17:01;;;;;;;73.40;36.47;;;5.00;99.90;;;;;;5013637;28;20694;-72
2024/03/07 00:19:26;;;;;;;83.00;36.40;;;5.00;99.90;;;;;;5013076;28;20220;-73
2024/03/07 00:21:56;;;;;;;72.57;35.53;;;5.00;99.90;;;;;;5013730;28;20180;-72
2024/03/07 00:24:22;;;;;;;80.47;35.17;;;5.00;99.90;;;;;;5013608;28;20545;-70
2024/03/07 00:26:51;;;;;;;75.53;36.83;;;4.90;99.90;;;;;;5013493;28;20200;-70
2024/03/07 00:29:20;;;;;;;90.97;40.57;;;4.90;99.90;;;;;;5013501;28;20172;-70
2024/03/07 00:31:46;;;;;;;86.30;37.63;;;4.90;99.90;;;;;;5013532;28;20180;-70
2024/03/07 00:34:15;;;;;;;80.73;38.73;;;4.90;99.90;;;;;;5013453;28;20180;-70
2024/03/07 00:36:41;;;;;;;78.23;38.17;;;4.90;99.90;;;;;;5020006;28;20203;-70
2024/03/07 00:39:08;;;;;;;83.20;37.27;;;4.90;99.90;;;;;;5033320;28;20175;-70
2024/03/07 00:41:34;;;;;;;91.07;38.43;;;4.90;99.90;;;;;;5033097;28;20176;-70
2024/03/07 00:43:59;;;;;;;86.93;39.33;;;4.90;99.90;;;;;;5032675;28;20203;-70
2024/03/07 00:46:25;;;;;;;87.30;38.47;;;4.90;99.90;;;;;;5032728;28;20192;-70
2024/03/07 00:48:54;;;;;;;101.03;39.83;;;4.90;99.90;;;;;;5033296;28;20270;-70
2024/03/07 00:51:19;;;;;;;94.17;39.07;;;4.90;99.90;;;;;;5032669;28;20263;-70
2024/03/07 00:53:48;;;;;;;94.90;39.23;;;4.80;99.90;;;;;;5032755;28;20259;-70
2024/03/07 00:56:14;;;;;;;89.90;40.07;;;4.80;99.90;;;;;;5032490;28;20196;-70
2024/03/07 00:58:39;;;;;;;89.60;39.97;;;4.70;99.90;;;;;;5032861;28;20332;-70
2024/03/07 01:01:05;;;;;;;90.17;38.60;;;4.70;99.90;;;;;;5033002;28;20259;-71
2024/03/07 01:03:33;;;;;;;86.97;38.50;;;4.70;99.90;;;;;;5032743;28;20218;-70
2024/03/07 01:05:59;;;;;;;83.10;39.87;;;4.70;99.90;;;;;;5013655;28;20224;-70
2024/03/07 01:08:24;;;;;;;93.10;40.23;;;4.60;99.90;;;;;;5012727;28;20632;-70
2024/03/07 01:10:50;;;;;;;93.27;40.20;;;4.60;99.90;;;;;;5012833;28;20184;-71
2024/03/07 01:13:22;;;;;;;93.87;41.87;;;4.50;99.90;;;;;;5013065;28;20180;-70
2024/03/07 01:15:48;;;;;;;103.70;41.60;;;4.50;99.90;;;;;;5012640;28;20647;-71
2024/03/07 01:18:14;;;;;;;93.97;39.60;;;4.50;99.90;;;;;;5012654;28;20683;-71
2024/03/07 01:20:40;;;;;;;98.60;42.73;;;4.50;99.90;;;;;;5012127;28;20187;-71
2024/03/07 01:23:07;;;;;;;94.67;39.17;;;4.40;99.90;;;;;;5012764;28;20195;-73
2024/03/07 01:25:36;;;;;;;98.93;40.13;;;4.40;99.90;;;;;;5012229;28;20204;-71
2024/03/07 01:28:04;;;;;;;97.33;40.20;;;4.40;99.90;;;;;;5012483;28;20188;-71
2024/03/07 01:30:29;;;;;;;91.60;37.87;;;4.30;99.90;;;;;;5027498;28;20260;-71
2024/03/07 01:32:55;;;;;;;101.63;40.80;;;4.30;99.90;;;;;;5022680;28;20259;-71
2024/03/07 01:35:21;;;;;;;95.30;39.87;;;4.30;99.90;;;;;;5031796;28;20172;-71
2024/03/07 01:37:46;;;;;;;98.43;40.93;;;4.30;99.90;;;;;;5032091;28;20617;-71
2024/03/07 01:40:14;;;;;;;96.97;40.17;;;4.30;99.90;;;;;;5031962;28;20218;-71
2024/03/07 01:42:40;;;;;;;93.50;40.03;;;4.30;99.90;;;;;;5031875;28;20748;-71
2024/03/07 01:45:08;;;;;;;99.37;38.50;;;4.30;99.90;;;;;;5013883;28;20238;-71
2024/03/07 01:47:37;;;;;;;98.23;38.57;;;4.20;99.90;;;;;;5022379;28;20286;-70
2024/03/07 01:50:04;;;;;;;92.53;39.73;;;4.20;99.90;;;;;;5012249;28;20172;-70
2024/03/07 01:52:30;;;;;;;106.13;41.50;;;4.20;99.90;;;;;;5012077;28;20172;-70
2024/03/07 01:54:56;;;;;;;105.30;41.73;;;4.20;99.90;;;;;;5011322;28;20207;-70
2024/03/07 01:57:25;;;;;;;110.57;42.93;;;4.20;99.90;;;;;;5011697;28;20199;-70
2024/03/07 01:59:51;;;;;;;106.67;40.07;;;4.20;99.90;;;;;;5014407;28;20469;-72
2024/03/07 02:02:20;;;;;;;82.47;37.60;;;4.10;99.90;;;;;;5031718;28;20259;-72
2024/03/07 02:04:45;;;;;;;105.40;41.53;;;4.10;99.90;;;;;;5031285;28;20195;-71
2024/03/07 02:07:11;;;;;;;104.33;40.97;;;4.00;99.90;;;;;;5031537;28;20233;-70
2024/03/07 02:09:38;;;;;;;118.77;44.60;;;4.10;99.90;;;;;;5031409;28;20178;-70
2024/03/07 02:12:04;;;;;;;105.77;40.33;;;4.00;99.90;;;;;;5031533;28;20167;-70
2024/03/07 02:14:29;;;;;;;95.07;39.50;;;4.00;99.90;;;;;;5029852;28;20229;-71
2024/03/07 02:16:58;;;;;;;103.53;42.10;;;4.10;99.90;;;;;;5011740;28;20567;-71
2024/03/07 02:19:24;;;;;;;94.63;39.27;;;4.00;99.90;;;;;;5011168;28;20176;-70
2024/03/07 02:21:50;;;;;;;103.13;40.33;;;4.00;99.90;;;;;;5011566;28;20184;-70
2024/03/07 02:24:15;;;;;;;104.20;42.43;;;4.00;99.90;;;;;;5011671;28;20214;-70
2024/03/07 02:26:41;;;;;;;98.60;37.53;;;3.90;99.90;;;;;;5028497;28;20206;-71
2024/03/07 02:29:07;;;;;;;103.97;41.37;;;3.90;99.90;;;;;;5017628;28;20180;-71
2024/03/07 02:31:36;;;;;;;95.40;38.63;;;3.90;99.90;;;;;;5011383;28;20168;-71
2024/03/07 02:34:05;;;;;;;111.67;40.63;;;3.90;99.90;;;;;;5011349;28;20517;-72
2024/03/07 02:36:31;;;;;;;97.33;38.13;;;3.80;99.90;;;;;;5012153;28;20204;-71
2024/03/07 02:38:56;;;;;;;102.30;39.70;;;3.80;99.90;;;;;;5011438;28;20190;-71
2024/03/07 02:41:22;;;;;;;98.63;39.20;;;3.70;99.90;;;;;;5011766;28;20172;-70
2024/03/07 02:43:47;;;;;;;105.67;39.77;;;3.70;99.90;;;;;;5011160;28;20269;-71
2024/03/07 02:46:13;;;;;;;94.17;37.10;;;3.70;99.90;;;;;;5011351;28;20208;-71
2024/03/07 02:48:39;;;;;;;109.00;39.63;;;3.60;99.90;;;;;;5011317;28;20192;-71
2024/03/07 02:51:08;;;;;;;105.53;40.07;;;3.60;99.90;;;;;;5016994;28;20203;-71
2024/03/07 02:53:33;;;;;;;107.53;39.93;;;3.60;99.90;;;;;;5030905;28;20225;-71
2024/03/07 02:56:00;;;;;;;103.60;39.10;;;3.60;99.90;;;;;;5025737;28;20720;-71
2024/03/07 02:58:25;;;;;;;105.23;38.93;;;3.60;99.90;;;;;;5011108;28;20183;-71
2024/03/07 03:01:03;;;;;;;103.90;39.50;;;3.50;99.90;;;;;;5011206;28;20251;-71
2024/03/07 03:03:31;;;;;;;112.17;38.43;;;3.50;99.90;;;;;;5011111;28;20539;-71
2024/03/07 03:05:57;;;;;;;121.97;39.33;;;3.40;99.90;;;;;;5011039;28;20658;-71
2024/03/07 03:08:23;;;;;;;104.57;37.70;;;3.40;99.90;;;;;;5015022;28;20176;-71
2024/03/07 03:10:53;;;;;;;107.40;37.30;;;3.40;99.90;;;;;;5020383;28;20179;-71
2024/03/07 03:13:18;;;;;;;108.60;38.73;;;3.20;99.90;;;;;;5038841;28;20172;-71
2024/03/07 03:15:44;;;;;;;105.73;38.97;;;3.30;99.90;;;;;;5039958;28;20202;-71
2024/03/07 03:18:09;;;;;;;94.40;36.17;;;3.30;99.90;;;;;;5037162;28;20749;-71
2024/03/07 03:20:38;;;;;;;105.93;39.43;;;3.20;99.90;;;;;;5035162;28;20182;-71
2024/03/07 03:23:05;;;;;;;107.80;39.47;;;3.20;99.90;;;;;;5035477;28;20171;-71
2024/03/07 03:25:34;;;;;;;113.10;38.30;;;3.20;99.90;;;;;;5016528;28;20204;-70
2024/03/07 03:28:04;;;;;;;108.20;37.93;;;3.10;99.90;;;;;;5015260;28;20230;-71
2024/03/07 03:30:30;;;;;;;104.93;37.27;;;3.10;99.90;;;;;;5015165;28;20180;-71
2024/03/07 03:32:56;;;;;;;110.63;37.60;;;3.00;99.90;;;;;;5015411;28;20223;-71
2024/03/07 03:35:21;;;;;;;101.40;39.50;;;3.00;99.90;;;;;;5015176;28;20179;-71
2024/03/07 03:37:47;;;;;;;111.63;39.20;;;3.00;99.90;;;;;;5015193;28;20307;-71
2024/03/07 03:40:13;;;;;;;107.67;38.90;;;3.00;99.90;;;;;;5015403;28;20704;-71
2024/03/07 03:42:39;;;;;;;120.10;38.50;;;3.00;99.90;;;;;;5014801;28;20215;-70
2024/03/07 03:45:06;;;;;;;105.70;38.33;;;2.90;99.90;;;;;;5014665;28;20242;-71
2024/03/07 03:47:36;;;;;;;103.97;36.07;;;2.90;99.90;;;;;;5014538;28;20211;-71
2024/03/07 03:50:05;;;;;;;119.30;40.67;;;2.90;99.90;;;;;;5020993;28;20221;-70
2024/03/07 03:52:32;;;;;;;98.43;38.17;;;2.90;99.90;;;;;;5034375;28;20524;-71
2024/03/07 03:54:58;;;;;;;115.73;38.07;;;2.80;99.90;;;;;;5034302;28;20168;-71
2024/03/07 03:57:25;;;;;;;113.87;40.03;;;2.80;99.90;;;;;;5034391;28;20196;-71
2024/03/07 03:59:52;;;;;;;98.93;37.60;;;2.80;99.90;;;;;;5034135;28;20642;-71
2024/03/07 04:02:17;;;;;;;94.93;38.13;;;2.80;99.90;;;;;;5034577;28;20183;-71
2024/03/07 04:04:45;;;;;;;108.83;38.03;;;2.70;99.90;;;;;;5033647;28;20276;-71
2024/03/07 04:07:12;;;;;;;106.23;37.73;;;2.70;99.90;;;;;;5034115;28;20195;-71
2024/03/07 04:09:38;;;;;;;111.73;38.80;;;2.70;99.90;;;;;;5034111;28;20179;-71
2024/03/07 04:12:05;;;;;;;115.00;39.20;;;2.70;99.90;;;;;;5034201;28;20175;-71
2024/03/07 04:14:33;;;;;;;111.53;38.47;;;2.70;99.90;;;;;;5033956;28;20167;-71
2024/03/07 04:16:59;;;;;;;102.57;37.80;;;2.70;99.90;;;;;;5033882;28;20202;-71
2024/03/07 04:19:25;;;;;;;117.80;39.33;;;2.70;99.90;;;;;;5014631;28;20176;-71
2024/03/07 04:21:51;;;;;;;118.03;39.43;;;2.70;99.90;;;;;;5014046;28;20594;-71
2024/03/07 04:24:17;;;;;;;113.77;38.97;;;2.60;99.90;;;;;;5014016;28;20239;-71
2024/03/07 04:26:42;;;;;;;109.53;38.93;;;2.60;99.90;;;;;;5013701;28;20196;-71
2024/03/07 04:29:08;;;;;;;109.23;38.17;;;2.60;99.90;;;;;;5014062;28;20525;-70
2024/03/07 04:31:34;;;;;;;108.50;38.50;;;2.50;99.90;;;;;;5013963;28;20652;-71
2024/03/07 04:34:00;;;;;;;114.00;37.57;;;2.60;99.90;;;;;;5013968;28;20172;-71
2024/03/07 04:36:25;;;;;;;115.30;39.87;;;2.60;99.90;;;;;;5013665;28;20207;-71
2024/03/07 04:38:52;;;;;;;121.67;42.00;;;2.50;99.90;;;;;;5013807;28;20191;-73
2024/03/07 04:41:18;;;;;;;119.67;39.30;;;2.50;99.90;;;;;;5013812;28;20187;-71
2024/03/07 04:43:44;;;;;;;134.23;41.63;;;2.50;99.90;;;;;;5013538;28;20219;-71
2024/03/07 04:46:10;;;;;;;127.30;40.73;;;2.50;99.90;;;;;;5022114;28;20168;-71
2024/03/07 04:48:35;;;;;;;115.20;39.93;;;2.50;99.90;;;;;;5513269;23;20312;-88
2024/03/07 04:51:01;;;;;;;119.00;39.67;;;2.50;99.90;;;;;;4999849;28;20192;-89
2024/03/07 04:53:27;;;;;;;112.00;38.37;;;2.50;99.90;;;;;;5017282;28;20187;-88
2024/03/07 04:55:52;;;;;;;119.30;37.77;;;2.50;99.90;;;;;;5000214;28;20184;-89
2024/03/07 04:58:18;;;;;;;108.53;39.07;;;2.40;99.90;;;;;;4999659;28;20180;-89
2024/03/07 05:00:44;;;;;;;105.30;37.43;;;2.40;99.90;;;;;;5017805;28;20184;-89
2024/03/07 05:03:10;;;;;;;114.13;37.73;;;2.40;99.90;;;;;;4990446;28;20206;-88
2024/03/07 05:05:36;;;;;;;105.63;37.57;;;2.40;99.90;;;;;;5019481;28;20214;-89
2024/03/07 05:08:04;;;;;;;100.27;38.17;;;2.30;99.90;;;;;;5002675;28;20650;-88
2024/03/07 05:10:30;;;;;;;116.37;39.87;;;2.30;99.90;;;;;;5019775;28;20229;-88
2024/03/07 05:12:58;;;;;;;116.00;39.10;;;2.30;99.90;;;;;;5019374;28;20180;-89
2024/03/07 05:15:25;;;;;;;125.20;40.67;;;2.30;99.90;;;;;;4980528;28;20185;-88
2024/03/07 05:17:52;;;;;;;112.23;37.23;;;2.30;99.90;;;;;;4996490;28;20235;-88
2024/03/07 05:20:18;;;;;;;120.37;38.40;;;2.30;99.90;;;;;;4996516;28;20200;-88
2024/03/07 05:22:47;;;;;;;110.37;39.13;;;2.30;99.90;;;;;;4997845;28;20180;-88
2024/03/07 05:25:13;;;;;;;116.37;37.57;;;2.30;99.90;;;;;;4996492;28;20236;-88
2024/03/07 05:27:39;;;;;;;118.20;37.93;;;2.30;99.90;;;;;;4996044;28;20184;-89
2024/03/07 05:30:05;;;;;;;111.43;38.33;;;2.40;99.90;;;;;;4999253;28;20192;-88
2024/03/07 05:32:34;;;;;;;112.53;37.90;;;2.50;99.90;;;;;;5018805;28;20183;-88
2024/03/07 05:35:00;;;;;;;117.67;38.90;;;2.60;99.90;;;;;;5001303;28;20219;-88
2024/03/07 05:37:26;;;;;;;104.43;39.80;;;2.70;99.90;;;;;;5001633;28;20172;-88
2024/03/07 05:39:52;;;;;;;119.53;40.23;;;2.70;99.90;;;;;;5002324;28;20196;-88
2024/03/07 05:42:20;;;;;;;105.43;39.80;;;2.80;99.90;;;;;;5012144;28;20187;-88
2024/03/07 05:44:48;;;;;;;104.00;38.53;;;2.90;99.90;;;;;;5020380;28;20203;-88
2024/03/07 05:47:18;;;;;;;114.73;38.27;;;3.00;99.90;;;;;;5003520;28;20267;-91
2024/03/07 05:49:47;;;;;;;112.20;37.50;;;3.00;99.90;;;;;;5018987;28;20274;-89
2024/03/07 05:52:13;;;;;;;115.57;38.57;;;3.00;99.90;;;;;;5000398;28;20176;-88
2024/03/07 05:54:40;;;;;;;97.77;35.93;;;3.10;99.90;;;;;;5000266;28;20230;-90
2024/03/07 05:57:06;;;;;;;109.87;39.57;;;3.10;99.90;;;;;;5001457;28;20267;-88
2024/03/07 05:59:34;;;;;;;97.37;37.40;;;3.10;99.90;;;;;;5000832;28;20207;-87
2024/03/07 06:02:03;;;;;;;106.10;38.80;;;3.10;99.90;;;;;;5004240;28;20176;-92
2024/03/07 06:04:29;;;;;;;114.80;39.30;;;3.20;99.90;;;;;;5001257;28;20238;-87
2024/03/07 06:06:55;;;;;;;107.90;37.37;;;3.30;99.90;;;;;;5033115;28;20248;-89
2024/03/07 06:09:23;;;;;;;104.73;36.57;;;3.30;99.90;;;;;;5005042;28;20239;-87
2024/03/07 06:11:49;;;;;;;103.23;38.70;;;3.40;99.90;;;;;;5020073;28;20179;-87
2024/03/07 06:14:16;;;;;;;105.00;38.70;;;3.50;99.90;;;;;;5012211;28;20756;-87
2024/03/07 06:16:42;;;;;;;102.37;40.03;;;3.60;99.90;;;;;;5019297;28;20210;-87
2024/03/07 06:19:08;;;;;;;113.90;37.87;;;3.60;99.90;;;;;;5001258;28;20286;-86
2024/03/07 06:21:36;;;;;;;109.93;39.27;;;3.70;99.90;;;;;;5015240;28;20187;-86
2024/03/07 06:24:02;;;;;;;93.40;36.50;;;3.70;99.90;;;;;;5019944;28;20242;-86
2024/03/07 06:29:18;;;;;;;108.27;38.67;;;3.80;99.90;;;;;;5040389;28;20198;-86
2024/03/07 06:31:50;;;;;;;119.03;39.73;;;3.90;99.90;;;;;;5025968;28;20179;-89
2024/03/07 06:34:17;;;;;;;116.70;41.00;;;3.90;99.90;;;;;;5027414;28;20281;-88
2024/03/07 06:36:43;;;;;;;101.17;36.37;;;4.00;99.90;;;;;;5015752;28;20187;-88
2024/03/07 06:39:10;;;;;;;102.30;38.70;;;4.00;99.90;;;;;;5020670;28;20246;-87
2024/03/07 06:41:36;;;;;;;103.90;40.60;;;4.10;99.90;;;;;;5003612;28;20183;-87
2024/03/07 06:44:03;;;;;;;112.17;38.33;;;4.10;99.90;;;;;;5020067;28;20241;-88
2024/03/07 06:46:29;;;;;;;99.47;37.63;;;4.20;99.90;;;;;;5019323;28;20609;-88
2024/03/07 06:48:56;;;;;;;108.23;38.63;;;4.20;99.90;;;;;;5018805;28;20230;-88
2024/03/07 06:51:22;;;;;;;95.93;38.53;;;4.20;99.90;;;;;;5027269;28;20214;-88
2024/03/07 06:53:48;;;;;;;96.03;35.73;;;4.20;99.90;;;;;;5031655;28;20219;-88
2024/03/07 06:56:14;;;;;;;97.00;37.37;;;4.30;99.90;;;;;;5020982;28;20180;-87
2024/03/07 06:58:40;;;;;;;98.43;37.97;;;4.30;99.90;;;;;;5020614;28;20175;-87
2024/03/07 07:01:09;;;;;;;90.00;36.30;;;4.20;99.90;;;;;;5033417;28;20187;-88
2024/03/07 07:03:35;;;;;;;83.43;34.20;;;4.30;99.90;;;;;;5038355;28;20172;-87
2024/03/07 07:06:05;;;;;;;95.50;37.60;;;4.40;99.90;;;;;;5038960;28;20172;-87
2024/03/07 07:08:32;;;;;;;84.13;36.37;;;4.30;99.90;;;;;;5039021;28;20171;-88
2024/03/07 07:10:58;;;;;;;97.97;37.17;;;4.40;99.90;;;;;;5038964;28;20179;-87
2024/03/07 07:13:24;;;;;;;108.83;38.90;;;4.50;99.90;;;;;;5039530;28;20290;-88
2024/03/07 07:15:50;;;;;;;101.53;39.90;;;4.70;99.90;;;;;;5039266;28;20243;-89
2024/03/07 07:18:16;;;;;;;93.27;37.37;;;5.00;99.90;;;;;;5039398;28;20168;-88
2024/03/07 07:20:42;;;;;;;93.33;36.97;;;5.40;99.90;;;;;;5056240;28;20180;-89
2024/03/07 07:23:08;;;;;;;84.63;36.40;;;5.60;99.90;;;;;;5039707;28;20206;-89
2024/03/07 07:25:33;;;;;;;81.23;36.70;;;5.80;99.90;;;;;;5039587;28;20218;-89
2024/03/07 07:27:59;;;;;;;75.33;34.83;;;6.20;99.90;;;;;;5039561;28;20179;-89
2024/03/07 07:30:26;;;;;;;81.73;36.20;;;6.50;99.90;;;;;;5039413;28;20195;-89
2024/03/07 07:32:56;;;;;;;62.87;32.83;;;6.70;99.90;;;;;;5039416;28;20183;-88
2024/03/07 07:35:22;;;;;;;70.20;32.57;;;7.00;99.90;;;;;;5023498;28;20210;-90
2024/03/07 07:37:53;;;;;;;67.60;33.90;;;7.20;99.90;;;;;;5037470;28;20183;-89
2024/03/07 07:40:22;;;;;;;53.60;30.23;;;7.40;99.90;;;;;;5039443;28;20192;-88
2024/03/07 07:42:52;;;;;;;57.47;30.90;;;7.50;99.90;;;;;;5034095;28;20642;-89
2024/03/07 07:45:19;;;;;;;52.63;29.33;;;7.70;99.90;;;;;;5025882;28;20218;-89
2024/03/07 07:47:51;;;;;;;52.90;30.93;;;7.90;99.90;;;;;;5025153;28;20172;-87
2024/03/07 07:50:20;;;;;;;53.53;30.07;;;8.10;99.90;;;;;;5041533;28;20215;-88
2024/03/07 07:52:58;;;;;;;47.53;29.03;;;8.40;99.90;;;;;;5023222;28;20645;-88
2024/03/07 07:55:28;;;;;;;44.50;29.10;;;8.70;99.90;;;;;;5010650;28;20211;-88
2024/03/07 07:57:56;;;;;;;41.70;26.80;;;8.90;99.90;;;;;;5026432;28;20246;-88
2024/03/07 08:00:24;;;;;;;44.13;27.77;;;9.10;99.90;;;;;;5025955;28;20222;-88
2024/03/07 08:02:58;;;;;;;37.70;24.73;;;9.40;99.90;;;;;;5026342;28;20190;-88
2024/03/07 08:05:27;;;;;;;37.77;25.50;;;9.40;99.90;;;;;;5025353;28;20211;-88
2024/03/07 08:07:56;;;;;;;38.27;25.07;;;9.70;99.90;;;;;;5025563;28;20171;-88
2024/03/07 08:10:30;;;;;;;36.23;23.53;;;9.90;99.90;;;;;;5025317;28;20211;-89
2024/03/07 08:13:00;;;;;;;29.63;22.57;;;10.30;99.90;;;;;;5024392;28;20198;-89
2024/03/07 08:15:30;;;;;;;33.63;20.63;;;10.60;99.90;;;;;;5024074;28;20182;-88
2024/03/07 08:17:59;;;;;;;27.33;20.10;;;10.40;99.90;;;;;;5023277;28;20606;-89
2024/03/07 08:20:25;;;;;;;24.97;18.33;;;10.40;99.90;;;;;;5006121;28;20579;-89
2024/03/07 08:23:03;;;;;;;28.10;17.60;;;10.50;99.90;;;;;;5024212;28;20270;-88
2024/03/07 08:25:31;;;;;;;23.23;16.33;;;10.30;99.90;;;;;;5022905;28;20211;-87
2024/03/07 08:28:00;;;;;;;24.37;17.10;;;10.30;99.90;;;;;;5017951;28;20187;-89
2024/03/07 08:30:28;;;;;;;27.37;18.67;;;10.30;99.90;;;;;;4986922;28;20204;-87
2024/03/07 08:32:58;;;;;;;21.40;16.07;;;10.50;99.90;;;;;;4988602;28;20222;-89
2024/03/07 08:35:24;;;;;;;22.70;16.90;;;10.50;99.90;;;;;;5005127;28;20191;-89
2024/03/07 08:37:54;;;;;;;22.63;15.90;;;10.80;99.90;;;;;;5004005;28;20207;-87
2024/03/07 08:40:21;;;;;;;23.97;16.27;;;10.70;99.90;;;;;;5008963;28;20686;-87
2024/03/07 08:42:52;;;;;;;21.77;16.50;;;10.50;99.90;;;;;;5023270;28;20186;-88
2024/03/07 08:45:21;;;;;;;20.43;15.77;;;10.40;99.90;;;;;;5006222;28;20211;-87
2024/03/07 08:47:51;;;;;;;18.50;15.40;;;10.40;99.90;;;;;;5022329;28;20188;-87
2024/03/07 08:50:18;;;;;;;21.40;15.43;;;10.50;99.90;;;;;;5021684;28;20282;-88
2024/03/07 08:52:45;;;;;;;20.47;14.87;;;10.70;99.90;;;;;;5021107;28;20190;-88
2024/03/07 08:55:14;;;;;;;21.83;14.90;;;11.00;99.90;;;;;;5021289;28;20266;-87
2024/03/07 08:57:41;;;;;;;19.87;14.03;;;11.00;99.90;;;;;;5022032;28;20183;-87
2024/03/07 09:00:08;;;;;;;20.87;14.10;;;11.10;99.90;;;;;;5021693;28;20201;-88
2024/03/07 09:02:38;;;;;;;20.30;14.87;;;11.10;99.90;;;;;;5022830;28;20194;-86
2024/03/07 09:05:06;;;;;;;18.17;13.60;;;11.10;99.90;;;;;;5039604;28;20207;-89
2024/03/07 09:07:32;;;;;;;18.13;14.13;;;11.30;99.90;;;;;;5004540;28;20253;-87
2024/03/07 09:09:58;;;;;;;19.77;14.67;;;11.20;99.90;;;;;;5005044;28;20219;-89
2024/03/07 09:12:27;;;;;;;21.93;14.70;;;11.50;99.90;;;;;;5020775;28;20557;-88
2024/03/07 09:14:57;;;;;;;20.50;14.57;;;11.50;99.90;;;;;;5021385;28;20195;-88
2024/03/07 09:17:23;;;;;;;23.30;13.83;;;11.50;99.90;;;;;;5021508;28;20207;-88
2024/03/07 09:19:48;;;;;;;20.20;13.80;;;11.60;99.90;;;;;;5008685;28;20215;-87
2024/03/07 09:22:23;;;;;;;20.07;12.43;;;11.50;99.90;;;;;;5023414;28;20188;-92
2024/03/07 09:24:48;;;;;;;18.77;12.00;;;11.20;99.90;;;;;;4987737;28;20208;-86
2024/03/07 09:27:19;;;;;;;17.83;13.03;;;10.90;99.90;;;;;;5033284;28;20190;-87
2024/03/07 09:29:47;;;;;;;17.50;13.60;;;10.90;99.90;;;;;;5018893;28;20199;-87
2024/03/07 09:32:13;;;;;;;19.30;13.10;;;11.10;99.90;;;;;;5019831;28;20175;-91
2024/03/07 09:34:41;;;;;;;17.47;13.40;;;11.20;99.90;;;;;;5038722;28;20206;-86
2024/03/07 09:37:07;;;;;;;20.17;13.80;;;11.10;99.90;;;;;;5020634;28;20182;-87
2024/03/07 09:39:34;;;;;;;16.83;13.57;;;10.90;99.90;;;;;;5020613;28;20286;-90
2024/03/07 09:42:01;;;;;;;17.57;12.87;;;10.80;99.90;;;;;;5031517;28;20184;-87
2024/03/07 09:44:28;;;;;;;15.90;12.43;;;10.50;99.90;;;;;;5022170;28;20206;-88
2024/03/07 09:46:58;;;;;;;17.57;13.00;;;10.50;99.90;;;;;;5019550;28;20183;-87
2024/03/07 09:49:24;;;;;;;17.13;13.33;;;10.50;99.90;;;;;;5038705;28;20214;-86
2024/03/07 09:51:54;;;;;;;23.07;13.53;;;10.60;99.90;;;;;;5022911;28;20183;-89
2024/03/07 09:54:24;;;;;;;21.83;13.70;;;10.80;99.90;;;;;;5018814;28;20180;-87
2024/03/07 09:56:52;;;;;;;15.83;12.10;;;11.00;99.90;;;;;;5002918;28;20274;-87
2024/03/07 09:59:22;;;;;;;16.70;13.97;;;11.00;99.90;;;;;;5019334;28;20697;-87
2024/03/07 10:01:51;;;;;;;16.80;12.13;;;11.10;99.90;;;;;;5019652;28;20274;-86
2024/03/07 10:04:26;;;;;;;18.07;13.60;;;11.50;99.90;;;;;;5018864;28;20211;-87
2024/03/07 10:06:53;;;;;;;19.80;13.63;;;11.70;99.90;;;;;;5012386;28;20225;-88
2024/03/07 10:09:21;;;;;;;17.27;13.73;;;11.60;99.90;;;;;;5010214;28;20290;-86
2024/03/07 10:11:58;;;;;;;21.43;13.63;;;10.90;99.90;;;;;;5014754;28;20275;-87
2024/03/07 10:14:25;;;;;;;20.43;15.23;;;10.80;99.90;;;;;;5015368;28;20187;-89
2024/03/07 10:16:56;;;;;;;23.40;14.33;;;10.50;99.90;;;;;;5003117;28;20334;-87
2024/03/07 10:19:22;;;;;;;22.70;14.77;;;10.20;99.90;;;;;;4998890;28;20202;-86
2024/03/07 10:21:47;;;;;;;21.77;14.73;;;10.10;99.90;;;;;;4998360;28;20195;-87
2024/03/07 10:24:14;;;;;;;19.17;14.67;;;10.10;99.90;;;;;;5012523;28;20203;-87
2024/03/07 10:26:40;;;;;;;19.47;14.17;;;10.20;99.90;;;;;;5035533;28;20195;-87
2024/03/07 10:29:07;;;;;;;20.17;15.07;;;10.40;99.90;;;;;;5035966;28;20187;-88
2024/03/07 10:31:34;;;;;;;20.20;14.57;;;10.50;99.90;;;;;;5031984;28;20180;-87
2024/03/07 10:34:08;;;;;;;19.87;13.97;;;10.40;99.90;;;;;;5026963;28;20186;-88
2024/03/07 10:36:34;;;;;;;21.33;15.10;;;10.10;99.90;;;;;;5047866;28;20172;-87
2024/03/07 10:39:03;;;;;;;19.17;14.57;;;10.00;99.90;;;;;;5024849;28;20629;-86
2024/03/07 10:41:36;;;;;;;20.93;14.80;;;9.90;99.90;;;;;;5024395;28;20179;-86
2024/03/07 10:44:06;;;;;;;16.63;12.83;;;9.90;99.90;;;;;;5007370;28;20293;-87
2024/03/07 10:46:33;;;;;;;18.00;12.90;;;10.40;99.90;;;;;;5039009;28;20168;-87
2024/03/07 10:49:00;;;;;;;19.37;13.27;;;10.80;99.90;;;;;;5003281;28;20179;-87
2024/03/07 10:51:33;;;;;;;17.73;13.60;;;11.40;99.90;;;;;;5021251;28;20175;-88
2024/03/07 10:54:30;;;;;;;17.63;13.10;;;11.80;99.90;;;;;;5004419;28;20187;-87
2024/03/07 10:57:25;;;;;;;21.07;13.37;;;12.20;99.90;;;;;;4999844;28;20183;-88
2024/03/07 10:59:58;;;;;;;18.27;12.83;;;12.40;99.90;;;;;;4981268;28;20212;-88
2024/03/07 11:02:27;;;;;;;19.87;13.70;;;12.30;99.90;;;;;;5017380;28;20203;-88
2024/03/07 11:04:54;;;;;;;20.23;14.47;;;12.20;99.90;;;;;;4999145;28;20196;-87
2024/03/07 11:07:23;;;;;;;19.37;13.67;;;12.00;99.90;;;;;;4999623;28;20199;-86
2024/03/07 11:09:52;;;;;;;17.17;13.23;;;12.10;99.90;;;;;;4999340;28;20192;-86
2024/03/07 11:12:21;;;;;;;18.37;13.33;;;11.90;98.60;;;;;;4998750;28;20275;-87
2024/03/07 11:14:48;;;;;;;21.80;14.17;;;12.00;99.90;;;;;;4998698;28;20737;-87
2024/03/07 11:17:15;;;;;;;18.63;12.83;;;12.30;99.90;;;;;;5004425;28;20199;-86
2024/03/07 11:19:42;;;;;;;21.03;13.33;;;12.80;99.90;;;;;;5019668;28;20515;-88
2024/03/07 11:22:15;;;;;;;20.83;14.13;;;13.00;98.50;;;;;;5019116;28;20227;-87
2024/03/07 11:24:42;;;;;;;18.30;14.13;;;12.90;95.70;;;;;;5018935;28;20289;-88
2024/03/07 11:27:10;;;;;;;18.83;13.30;;;12.40;95.80;;;;;;5018792;28;20172;-87
2024/03/07 11:29:53;;;;;;;16.37;13.00;;;12.20;97.80;;;;;;5021252;28;20191;-87
2024/03/07 11:32:20;;;;;;;18.83;12.43;;;12.00;97.00;;;;;;5022340;28;20178;-86
2024/03/07 11:34:47;;;;;;;16.30;13.53;;;11.70;98.40;;;;;;5022560;28;20275;-88
2024/03/07 11:37:43;;;;;;;20.63;14.33;;;11.70;98.80;;;;;;5023267;28;20274;-88
2024/03/07 11:40:18;;;;;;;17.80;13.60;;;11.50;98.60;;;;;;5022243;28;20267;-87
2024/03/07 11:42:47;;;;;;;20.13;14.27;;;11.70;99.90;;;;;;5006211;28;20623;-88
2024/03/07 11:45:24;;;;;;;18.53;13.40;;;11.60;99.90;;;;;;5003273;28;20276;-86
2024/03/07 11:47:57;;;;;;;17.47;13.47;;;11.70;99.90;;;;;;5019897;28;20220;-87
2024/03/07 11:50:25;;;;;;;19.10;14.13;;;11.70;99.90;;;;;;4998359;28;20212;-87
2024/03/07 11:52:54;;;;;;;18.30;13.73;;;11.80;99.90;;;;;;4998475;28;20180;-86
2024/03/07 11:55:22;;;;;;;18.53;13.40;;;11.80;98.90;;;;;;4999567;28;20185;-87
2024/03/07 11:57:48;;;;;;;20.90;13.57;;;12.00;99.90;;;;;;4997519;28;20212;-87
2024/03/07 12:00:16;;;;;;;19.87;13.87;;;12.30;99.90;;;;;;4998145;28;20291;-88
2024/03/07 12:02:43;;;;;;;18.40;13.97;;;12.50;99.90;;;;;;4998229;28;20659;-88
2024/03/07 12:05:09;;;;;;;15.67;13.10;;;12.80;98.20;;;;;;5020429;28;20752;-87
2024/03/07 12:07:35;;;;;;;16.03;12.43;;;12.60;97.60;;;;;;5001495;28;20172;-88
2024/03/07 12:10:06;;;;;;;16.00;13.07;;;12.60;99.20;;;;;;5006052;28;20291;-88
2024/03/07 12:12:32;;;;;;;17.60;12.97;;;13.10;99.90;;;;;;5022109;28;20174;-88
2024/03/07 12:14:59;;;;;;;20.70;13.93;;;13.80;99.90;;;;;;5020470;28;20206;-87
2024/03/07 12:17:25;;;;;;;18.70;13.87;;;14.20;98.40;;;;;;5020473;28;20199;-87
2024/03/07 12:19:51;;;;;;;20.60;13.50;;;14.40;97.70;;;;;;5019579;28;20195;-88
2024/03/07 12:22:22;;;;;;;18.97;14.00;;;14.50;95.90;;;;;;5020410;28;20684;-87
2024/03/07 12:25:10;;;;;;;16.97;12.57;;;14.80;94.70;;;;;;5020311;28;20218;-86
2024/03/07 12:27:38;;;;;;;14.90;11.60;;;15.10;94.30;;;;;;5020379;28;20168;-87
2024/03/07 12:30:16;;;;;;;15.73;12.40;;;14.90;93.10;;;;;;5020072;28;20191;-86
2024/03/07 12:32:48;;;;;;;15.90;12.63;;;14.70;91.70;;;;;;5041727;28;20257;-87
2024/03/07 12:35:14;;;;;;;17.43;13.00;;;14.40;93.50;;;;;;5005254;28;20263;-87
2024/03/07 12:37:41;;;;;;;17.67;12.60;;;14.40;93.40;;;;;;5000095;28;20176;-87